sensor_id;sensor_type;location;lat;lon;timestamp;P1;durP1;ratioP1;P2;durP2;ratioP2
13443;SDS011;6794;59.218;18.218;2022-07-19T00:01:29;5.13;;;4.63;;
13443;SDS011;6794;59.218;18.218;2022-07-19T00:03:58;5.53;;;4.80;;
13443;SDS011;6794;59.218;18.218;2022-07-19T00:06:24;5.57;;;4.67;;
13443;SDS011;6794;59.218;18.218;2022-07-19T00:08:50;5.23;;;4.73;;
13443;SDS011;6794;59.218;18.218;2022-07-19T00:11:16;5.27;;;4.77;;
13443;SDS011;6794;59.218;18.218;2022-07-19T00:13:42;5.80;;;5.30;;
13443;SDS011;6794;59.218;18.218;2022-07-19T00:16:08;5.80;;;5.30;;
13443;SDS011;6794;59.218;18.218;2022-07-19T00:18:35;5.90;;;4.70;;
13443;SDS011;6794;59.218;18.218;2022-07-19T00:21:01;6.13;;;4.97;;
13443;SDS011;6794;59.218;18.218;2022-07-19T00:23:27;4.87;;;4.47;;
13443;SDS011;6794;59.218;18.218;2022-07-19T00:25:53;5.40;;;4.90;;
13443;SDS011;6794;59.218;18.218;2022-07-19T00:28:19;5.60;;;5.10;;
13443;SDS011;6794;59.218;18.218;2022-07-19T00:30:45;7.83;;;5.73;;
13443;SDS011;6794;59.218;18.218;2022-07-19T00:33:11;5.90;;;5.30;;
13443;SDS011;6794;59.218;18.218;2022-07-19T00:35:38;5.30;;;4.80;;
13443;SDS011;6794;59.218;18.218;2022-07-19T00:38:07;5.47;;;4.97;;
13443;SDS011;6794;59.218;18.218;2022-07-19T00:40:34;5.40;;;4.90;;
13443;SDS011;6794;59.218;18.218;2022-07-19T00:43:00;5.80;;;5.10;;
13443;SDS011;6794;59.218;18.218;2022-07-19T00:45:26;7.67;;;5.07;;
13443;SDS011;6794;59.218;18.218;2022-07-19T00:47:52;6.67;;;5.30;;
13443;SDS011;6794;59.218;18.218;2022-07-19T00:50:19;5.90;;;5.00;;
13443;SDS011;6794;59.218;18.218;2022-07-19T00:52:45;5.83;;;5.30;;
13443;SDS011;6794;59.218;18.218;2022-07-19T00:55:12;5.93;;;5.13;;
13443;SDS011;6794;59.218;18.218;2022-07-19T00:57:38;5.93;;;5.33;;
13443;SDS011;6794;59.218;18.218;2022-07-19T01:00:05;6.03;;;5.50;;
13443;SDS011;6794;59.218;18.218;2022-07-19T01:02:32;6.10;;;5.50;;
13443;SDS011;6794;59.218;18.218;2022-07-19T01:04:58;5.93;;;4.97;;
13443;SDS011;6794;59.218;18.218;2022-07-19T01:07:25;5.33;;;4.83;;
13443;SDS011;6794;59.218;18.218;2022-07-19T01:09:52;6.37;;;5.77;;
13443;SDS011;6794;59.218;18.218;2022-07-19T01:12:21;6.37;;;5.73;;
13443;SDS011;6794;59.218;18.218;2022-07-19T01:14:48;6.43;;;5.80;;
13443;SDS011;6794;59.218;18.218;2022-07-19T01:17:14;7.87;;;5.57;;
13443;SDS011;6794;59.218;18.218;2022-07-19T01:19:44;6.27;;;5.50;;
13443;SDS011;6794;59.218;18.218;2022-07-19T01:22:10;7.40;;;5.87;;
13443;SDS011;6794;59.218;18.218;2022-07-19T01:24:36;6.93;;;6.23;;
13443;SDS011;6794;59.218;18.218;2022-07-19T01:27:02;6.13;;;5.53;;
13443;SDS011;6794;59.218;18.218;2022-07-19T01:29:30;6.20;;;5.53;;
13443;SDS011;6794;59.218;18.218;2022-07-19T01:31:56;6.60;;;5.97;;
13443;SDS011;6794;59.218;18.218;2022-07-19T01:34:23;6.33;;;5.73;;
13443;SDS011;6794;59.218;18.218;2022-07-19T01:36:49;7.03;;;6.33;;
13443;SDS011;6794;59.218;18.218;2022-07-19T01:39:15;6.77;;;6.07;;
13443;SDS011;6794;59.218;18.218;2022-07-19T01:41:41;9.90;;;6.20;;
13443;SDS011;6794;59.218;18.218;2022-07-19T01:44:07;8.00;;;6.17;;
13443;SDS011;6794;59.218;18.218;2022-07-19T01:46:33;7.60;;;6.70;;
13443;SDS011;6794;59.218;18.218;2022-07-19T01:48:59;6.80;;;5.93;;
13443;SDS011;6794;59.218;18.218;2022-07-19T01:51:25;6.90;;;6.20;;
13443;SDS011;6794;59.218;18.218;2022-07-19T01:53:51;6.93;;;6.03;;
13443;SDS011;6794;59.218;18.218;2022-07-19T01:56:17;6.77;;;6.07;;
13443;SDS011;6794;59.218;18.218;2022-07-19T01:58:43;6.47;;;5.63;;
13443;SDS011;6794;59.218;18.218;2022-07-19T02:01:09;6.37;;;5.73;;
13443;SDS011;6794;59.218;18.218;2022-07-19T02:03:35;6.47;;;5.50;;
13443;SDS011;6794;59.218;18.218;2022-07-19T02:06:01;6.03;;;5.50;;
13443;SDS011;6794;59.218;18.218;2022-07-19T02:08:27;8.57;;;6.00;;
13443;SDS011;6794;59.218;18.218;2022-07-19T02:10:53;7.27;;;6.50;;
13443;SDS011;6794;59.218;18.218;2022-07-19T02:13:19;8.83;;;6.33;;
13443;SDS011;6794;59.218;18.218;2022-07-19T02:15:45;7.90;;;6.20;;
13443;SDS011;6794;59.218;18.218;2022-07-19T02:18:13;7.53;;;6.10;;
13443;SDS011;6794;59.218;18.218;2022-07-19T02:20:39;7.63;;;6.23;;
13443;SDS011;6794;59.218;18.218;2022-07-19T02:23:05;7.67;;;6.70;;
13443;SDS011;6794;59.218;18.218;2022-07-19T02:25:32;6.60;;;5.97;;
13443;SDS011;6794;59.218;18.218;2022-07-19T02:27:58;7.43;;;6.50;;
13443;SDS011;6794;59.218;18.218;2022-07-19T02:30:25;7.03;;;5.90;;
13443;SDS011;6794;59.218;18.218;2022-07-19T02:32:51;9.60;;;7.17;;
13443;SDS011;6794;59.218;18.218;2022-07-19T02:35:17;7.60;;;5.73;;
13443;SDS011;6794;59.218;18.218;2022-07-19T02:37:44;7.27;;;6.43;;
13443;SDS011;6794;59.218;18.218;2022-07-19T02:40:10;9.57;;;6.10;;
13443;SDS011;6794;59.218;18.218;2022-07-19T02:42:36;6.43;;;5.83;;
13443;SDS011;6794;59.218;18.218;2022-07-19T02:45:03;7.00;;;6.30;;
13443;SDS011;6794;59.218;18.218;2022-07-19T02:47:29;6.17;;;5.57;;
13443;SDS011;6794;59.218;18.218;2022-07-19T02:49:55;6.07;;;5.47;;
13443;SDS011;6794;59.218;18.218;2022-07-19T02:52:21;7.57;;;6.77;;
13443;SDS011;6794;59.218;18.218;2022-07-19T02:54:47;6.53;;;5.93;;
13443;SDS011;6794;59.218;18.218;2022-07-19T02:57:13;6.67;;;5.60;;
13443;SDS011;6794;59.218;18.218;2022-07-19T02:59:39;7.10;;;6.40;;
13443;SDS011;6794;59.218;18.218;2022-07-19T03:02:06;7.50;;;5.97;;
13443;SDS011;6794;59.218;18.218;2022-07-19T03:04:32;7.10;;;6.37;;
13443;SDS011;6794;59.218;18.218;2022-07-19T03:06:58;6.87;;;6.03;;
13443;SDS011;6794;59.218;18.218;2022-07-19T03:09:24;6.67;;;5.97;;
13443;SDS011;6794;59.218;18.218;2022-07-19T03:11:50;8.00;;;6.87;;
13443;SDS011;6794;59.218;18.218;2022-07-19T03:14:16;8.87;;;8.00;;
13443;SDS011;6794;59.218;18.218;2022-07-19T03:16:42;10.03;;;8.60;;
13443;SDS011;6794;59.218;18.218;2022-07-19T03:19:08;10.93;;;8.87;;
13443;SDS011;6794;59.218;18.218;2022-07-19T03:21:34;9.40;;;7.83;;
13443;SDS011;6794;59.218;18.218;2022-07-19T03:24:00;7.93;;;6.53;;
13443;SDS011;6794;59.218;18.218;2022-07-19T03:26:26;6.63;;;5.93;;
13443;SDS011;6794;59.218;18.218;2022-07-19T03:28:52;7.97;;;6.73;;
13443;SDS011;6794;59.218;18.218;2022-07-19T03:31:18;7.33;;;6.63;;
13443;SDS011;6794;59.218;18.218;2022-07-19T03:33:44;9.03;;;7.30;;
13443;SDS011;6794;59.218;18.218;2022-07-19T03:36:10;8.00;;;7.20;;
13443;SDS011;6794;59.218;18.218;2022-07-19T03:38:36;7.63;;;6.67;;
13443;SDS011;6794;59.218;18.218;2022-07-19T03:41:02;11.57;;;7.83;;
13443;SDS011;6794;59.218;18.218;2022-07-19T03:43:28;7.53;;;6.63;;
13443;SDS011;6794;59.218;18.218;2022-07-19T03:45:54;7.37;;;6.57;;
13443;SDS011;6794;59.218;18.218;2022-07-19T03:48:20;8.90;;;6.70;;
13443;SDS011;6794;59.218;18.218;2022-07-19T03:50:46;7.90;;;7.10;;
13443;SDS011;6794;59.218;18.218;2022-07-19T03:53:13;8.67;;;7.20;;
13443;SDS011;6794;59.218;18.218;2022-07-19T03:55:39;8.90;;;7.40;;
13443;SDS011;6794;59.218;18.218;2022-07-19T03:58:05;7.67;;;6.80;;
13443;SDS011;6794;59.218;18.218;2022-07-19T04:00:31;8.27;;;6.67;;
13443;SDS011;6794;59.218;18.218;2022-07-19T04:02:57;11.33;;;7.30;;
13443;SDS011;6794;59.218;18.218;2022-07-19T04:05:23;7.93;;;7.03;;
13443;SDS011;6794;59.218;18.218;2022-07-19T04:07:49;7.30;;;6.60;;
13443;SDS011;6794;59.218;18.218;2022-07-19T04:10:15;10.80;;;7.47;;
13443;SDS011;6794;59.218;18.218;2022-07-19T04:12:41;7.87;;;7.07;;
13443;SDS011;6794;59.218;18.218;2022-07-19T04:15:08;9.73;;;8.10;;
13443;SDS011;6794;59.218;18.218;2022-07-19T04:17:34;10.70;;;7.60;;
13443;SDS011;6794;59.218;18.218;2022-07-19T04:20:01;9.50;;;6.83;;
13443;SDS011;6794;59.218;18.218;2022-07-19T04:22:27;8.17;;;7.20;;
13443;SDS011;6794;59.218;18.218;2022-07-19T04:24:53;8.17;;;7.30;;
13443;SDS011;6794;59.218;18.218;2022-07-19T04:27:19;8.48;;;7.28;;
13443;SDS011;6794;59.218;18.218;2022-07-19T04:29:46;9.10;;;7.43;;
13443;SDS011;6794;59.218;18.218;2022-07-19T04:32:12;8.60;;;7.17;;
13443;SDS011;6794;59.218;18.218;2022-07-19T04:34:38;9.73;;;7.67;;
13443;SDS011;6794;59.218;18.218;2022-07-19T04:37:04;9.13;;;7.17;;
13443;SDS011;6794;59.218;18.218;2022-07-19T04:39:30;9.83;;;6.93;;
13443;SDS011;6794;59.218;18.218;2022-07-19T04:41:57;10.47;;;7.37;;
13443;SDS011;6794;59.218;18.218;2022-07-19T04:44:23;8.40;;;6.90;;
13443;SDS011;6794;59.218;18.218;2022-07-19T04:46:49;9.40;;;7.17;;
13443;SDS011;6794;59.218;18.218;2022-07-19T04:49:15;9.83;;;7.80;;
13443;SDS011;6794;59.218;18.218;2022-07-19T04:51:41;10.63;;;8.30;;
13443;SDS011;6794;59.218;18.218;2022-07-19T04:54:07;9.87;;;8.80;;
13443;SDS011;6794;59.218;18.218;2022-07-19T04:56:33;12.37;;;8.70;;
13443;SDS011;6794;59.218;18.218;2022-07-19T04:58:59;12.87;;;8.20;;
13443;SDS011;6794;59.218;18.218;2022-07-19T05:01:25;15.53;;;8.37;;
13443;SDS011;6794;59.218;18.218;2022-07-19T05:03:51;12.53;;;9.20;;
13443;SDS011;6794;59.218;18.218;2022-07-19T05:06:17;13.77;;;8.77;;
13443;SDS011;6794;59.218;18.218;2022-07-19T05:08:43;14.00;;;9.53;;
13443;SDS011;6794;59.218;18.218;2022-07-19T05:11:09;12.17;;;9.10;;
13443;SDS011;6794;59.218;18.218;2022-07-19T05:13:35;11.37;;;8.50;;
13443;SDS011;6794;59.218;18.218;2022-07-19T05:16:01;10.43;;;8.23;;
13443;SDS011;6794;59.218;18.218;2022-07-19T05:18:27;14.10;;;8.70;;
13443;SDS011;6794;59.218;18.218;2022-07-19T05:20:53;9.07;;;7.90;;
13443;SDS011;6794;59.218;18.218;2022-07-19T05:23:19;13.23;;;7.57;;
13443;SDS011;6794;59.218;18.218;2022-07-19T05:25:45;11.60;;;7.93;;
13443;SDS011;6794;59.218;18.218;2022-07-19T05:28:11;11.20;;;7.00;;
13443;SDS011;6794;59.218;18.218;2022-07-19T05:30:37;8.73;;;6.90;;
13443;SDS011;6794;59.218;18.218;2022-07-19T05:33:04;8.13;;;6.17;;
13443;SDS011;6794;59.218;18.218;2022-07-19T05:35:30;7.73;;;6.30;;
13443;SDS011;6794;59.218;18.218;2022-07-19T05:37:56;10.03;;;6.33;;
13443;SDS011;6794;59.218;18.218;2022-07-19T05:40:22;8.30;;;5.83;;
13443;SDS011;6794;59.218;18.218;2022-07-19T05:42:48;7.13;;;6.20;;
13443;SDS011;6794;59.218;18.218;2022-07-19T05:45:14;8.63;;;5.70;;
13443;SDS011;6794;59.218;18.218;2022-07-19T05:47:40;8.80;;;6.10;;
13443;SDS011;6794;59.218;18.218;2022-07-19T05:50:06;8.60;;;6.47;;
13443;SDS011;6794;59.218;18.218;2022-07-19T05:52:32;7.40;;;5.70;;
13443;SDS011;6794;59.218;18.218;2022-07-19T05:54:59;7.73;;;5.63;;
13443;SDS011;6794;59.218;18.218;2022-07-19T05:57:25;7.30;;;5.93;;
13443;SDS011;6794;59.218;18.218;2022-07-19T05:59:51;10.40;;;5.83;;
13443;SDS011;6794;59.218;18.218;2022-07-19T06:02:18;6.60;;;5.20;;
13443;SDS011;6794;59.218;18.218;2022-07-19T06:04:44;7.00;;;5.90;;
13443;SDS011;6794;59.218;18.218;2022-07-19T06:07:11;7.90;;;6.10;;
13443;SDS011;6794;59.218;18.218;2022-07-19T06:09:37;8.63;;;6.10;;
13443;SDS011;6794;59.218;18.218;2022-07-19T06:12:03;10.60;;;6.43;;
13443;SDS011;6794;59.218;18.218;2022-07-19T06:14:29;9.23;;;6.00;;
13443;SDS011;6794;59.218;18.218;2022-07-19T06:16:55;5.53;;;5.03;;
13443;SDS011;6794;59.218;18.218;2022-07-19T06:19:21;8.47;;;6.33;;
13443;SDS011;6794;59.218;18.218;2022-07-19T06:21:47;9.30;;;6.00;;
13443;SDS011;6794;59.218;18.218;2022-07-19T06:24:13;9.00;;;6.03;;
13443;SDS011;6794;59.218;18.218;2022-07-19T06:26:39;5.87;;;5.23;;
13443;SDS011;6794;59.218;18.218;2022-07-19T06:29:05;6.60;;;5.90;;
13443;SDS011;6794;59.218;18.218;2022-07-19T06:31:31;6.23;;;5.60;;
13443;SDS011;6794;59.218;18.218;2022-07-19T06:33:58;6.53;;;5.17;;
13443;SDS011;6794;59.218;18.218;2022-07-19T06:36:24;7.67;;;5.50;;
13443;SDS011;6794;59.218;18.218;2022-07-19T06:38:50;6.67;;;5.03;;
13443;SDS011;6794;59.218;18.218;2022-07-19T06:41:16;7.10;;;5.97;;
13443;SDS011;6794;59.218;18.218;2022-07-19T06:43:42;8.13;;;6.07;;
13443;SDS011;6794;59.218;18.218;2022-07-19T06:46:08;7.83;;;5.83;;
13443;SDS011;6794;59.218;18.218;2022-07-19T06:48:35;9.17;;;5.90;;
13443;SDS011;6794;59.218;18.218;2022-07-19T06:51:01;8.50;;;5.50;;
13443;SDS011;6794;59.218;18.218;2022-07-19T06:53:27;6.73;;;5.43;;
13443;SDS011;6794;59.218;18.218;2022-07-19T06:55:53;7.40;;;5.87;;
13443;SDS011;6794;59.218;18.218;2022-07-19T06:58:20;8.60;;;6.20;;
13443;SDS011;6794;59.218;18.218;2022-07-19T07:00:46;6.40;;;5.60;;
13443;SDS011;6794;59.218;18.218;2022-07-19T07:03:14;7.03;;;5.17;;
13443;SDS011;6794;59.218;18.218;2022-07-19T07:05:40;6.00;;;5.30;;
13443;SDS011;6794;59.218;18.218;2022-07-19T07:08:06;7.23;;;5.60;;
13443;SDS011;6794;59.218;18.218;2022-07-19T07:10:32;7.95;;;5.80;;
13443;SDS011;6794;59.218;18.218;2022-07-19T07:13:00;6.07;;;4.80;;
13443;SDS011;6794;59.218;18.218;2022-07-19T07:15:26;7.80;;;5.90;;
13443;SDS011;6794;59.218;18.218;2022-07-19T07:17:52;5.93;;;5.30;;
13443;SDS011;6794;59.218;18.218;2022-07-19T07:20:18;6.70;;;5.83;;
13443;SDS011;6794;59.218;18.218;2022-07-19T07:22:44;6.00;;;5.40;;
13443;SDS011;6794;59.218;18.218;2022-07-19T07:25:10;7.37;;;5.63;;
13443;SDS011;6794;59.218;18.218;2022-07-19T07:27:37;7.13;;;4.67;;
13443;SDS011;6794;59.218;18.218;2022-07-19T07:30:03;7.20;;;5.53;;
13443;SDS011;6794;59.218;18.218;2022-07-19T07:32:29;6.77;;;5.17;;
13443;SDS011;6794;59.218;18.218;2022-07-19T07:34:55;8.00;;;5.63;;
13443;SDS011;6794;59.218;18.218;2022-07-19T07:37:21;7.70;;;5.60;;
13443;SDS011;6794;59.218;18.218;2022-07-19T07:39:47;6.27;;;5.53;;
13443;SDS011;6794;59.218;18.218;2022-07-19T07:42:13;6.27;;;5.53;;
13443;SDS011;6794;59.218;18.218;2022-07-19T07:44:40;6.47;;;5.87;;
13443;SDS011;6794;59.218;18.218;2022-07-19T07:47:06;6.77;;;6.17;;
13443;SDS011;6794;59.218;18.218;2022-07-19T07:49:33;6.63;;;5.87;;
13443;SDS011;6794;59.218;18.218;2022-07-19T07:51:59;8.20;;;5.97;;
13443;SDS011;6794;59.218;18.218;2022-07-19T07:54:25;7.60;;;5.83;;
13443;SDS011;6794;59.218;18.218;2022-07-19T07:56:52;7.93;;;5.90;;
13443;SDS011;6794;59.218;18.218;2022-07-19T07:59:18;7.87;;;5.70;;
13443;SDS011;6794;59.218;18.218;2022-07-19T08:01:44;7.27;;;5.73;;
13443;SDS011;6794;59.218;18.218;2022-07-19T08:04:10;7.03;;;6.23;;
13443;SDS011;6794;59.218;18.218;2022-07-19T08:06:36;6.73;;;6.13;;
13443;SDS011;6794;59.218;18.218;2022-07-19T08:09:03;7.63;;;5.70;;
13443;SDS011;6794;59.218;18.218;2022-07-19T08:11:29;6.13;;;5.50;;
13443;SDS011;6794;59.218;18.218;2022-07-19T08:13:55;6.20;;;5.60;;
13443;SDS011;6794;59.218;18.218;2022-07-19T08:16:21;7.73;;;5.87;;
13443;SDS011;6794;59.218;18.218;2022-07-19T08:18:47;5.93;;;5.33;;
13443;SDS011;6794;59.218;18.218;2022-07-19T08:21:13;6.00;;;5.40;;
13443;SDS011;6794;59.218;18.218;2022-07-19T08:23:39;7.47;;;5.30;;
13443;SDS011;6794;59.218;18.218;2022-07-19T08:26:07;5.50;;;5.00;;
13443;SDS011;6794;59.218;18.218;2022-07-19T08:28:33;6.13;;;5.17;;
13443;SDS011;6794;59.218;18.218;2022-07-19T08:30:59;5.90;;;5.30;;
13443;SDS011;6794;59.218;18.218;2022-07-19T08:33:25;6.00;;;4.93;;
13443;SDS011;6794;59.218;18.218;2022-07-19T08:35:51;7.17;;;5.90;;
13443;SDS011;6794;59.218;18.218;2022-07-19T08:38:17;6.53;;;5.37;;
13443;SDS011;6794;59.218;18.218;2022-07-19T08:40:43;5.30;;;4.80;;
13443;SDS011;6794;59.218;18.218;2022-07-19T08:43:11;6.13;;;5.53;;
13443;SDS011;6794;59.218;18.218;2022-07-19T08:45:38;7.87;;;5.43;;
13443;SDS011;6794;59.218;18.218;2022-07-19T08:48:06;6.00;;;4.83;;
13443;SDS011;6794;59.218;18.218;2022-07-19T08:50:33;5.60;;;4.90;;
13443;SDS011;6794;59.218;18.218;2022-07-19T08:52:59;4.83;;;4.33;;
13443;SDS011;6794;59.218;18.218;2022-07-19T08:55:25;5.80;;;4.67;;
13443;SDS011;6794;59.218;18.218;2022-07-19T08:57:51;4.77;;;4.23;;
13443;SDS011;6794;59.218;18.218;2022-07-19T09:00:26;4.97;;;4.47;;
13443;SDS011;6794;59.218;18.218;2022-07-19T09:02:52;5.80;;;4.47;;
13443;SDS011;6794;59.218;18.218;2022-07-19T09:05:19;5.47;;;4.77;;
13443;SDS011;6794;59.218;18.218;2022-07-19T09:07:59;5.13;;;4.03;;
13443;SDS011;6794;59.218;18.218;2022-07-19T09:10:26;6.63;;;4.40;;
13443;SDS011;6794;59.218;18.218;2022-07-19T09:18:06;3.60;;;3.30;;
13443;SDS011;6794;59.218;18.218;2022-07-19T09:20:33;3.97;;;3.57;;
13443;SDS011;6794;59.218;18.218;2022-07-19T09:23:00;4.77;;;4.00;;
13443;SDS011;6794;59.218;18.218;2022-07-19T09:25:33;3.80;;;3.50;;
13443;SDS011;6794;59.218;18.218;2022-07-19T09:27:59;5.00;;;4.50;;
13443;SDS011;6794;59.218;18.218;2022-07-19T09:30:32;4.33;;;3.93;;
13443;SDS011;6794;59.218;18.218;2022-07-19T09:33:05;4.20;;;3.80;;
13443;SDS011;6794;59.218;18.218;2022-07-19T09:35:35;4.83;;;4.13;;
13443;SDS011;6794;59.218;18.218;2022-07-19T09:40:40;4.10;;;3.70;;
13443;SDS011;6794;59.218;18.218;2022-07-19T09:43:06;3.97;;;3.60;;
13443;SDS011;6794;59.218;18.218;2022-07-19T09:45:32;4.40;;;3.83;;
13443;SDS011;6794;59.218;18.218;2022-07-19T09:47:58;5.77;;;3.90;;
13443;SDS011;6794;59.218;18.218;2022-07-19T09:50:29;4.07;;;3.43;;
13443;SDS011;6794;59.218;18.218;2022-07-19T09:52:56;4.10;;;3.70;;
13443;SDS011;6794;59.218;18.218;2022-07-19T09:55:23;4.30;;;3.50;;
13443;SDS011;6794;59.218;18.218;2022-07-19T09:57:50;3.87;;;3.40;;
13443;SDS011;6794;59.218;18.218;2022-07-19T10:00:18;4.20;;;3.80;;
13443;SDS011;6794;59.218;18.218;2022-07-19T10:02:47;4.17;;;3.77;;
13443;SDS011;6794;59.218;18.218;2022-07-19T10:05:14;4.53;;;3.60;;
13443;SDS011;6794;59.218;18.218;2022-07-19T10:07:40;4.87;;;3.60;;
13443;SDS011;6794;59.218;18.218;2022-07-19T10:10:08;4.37;;;3.37;;
13443;SDS011;6794;59.218;18.218;2022-07-19T10:12:37;4.30;;;3.30;;
13443;SDS011;6794;59.218;18.218;2022-07-19T10:15:07;3.70;;;3.40;;
13443;SDS011;6794;59.218;18.218;2022-07-19T10:17:39;4.73;;;3.40;;
13443;SDS011;6794;59.218;18.218;2022-07-19T10:20:05;3.80;;;3.50;;
13443;SDS011;6794;59.218;18.218;2022-07-19T10:22:32;3.43;;;3.13;;
13443;SDS011;6794;59.218;18.218;2022-07-19T10:29:51;4.10;;;3.63;;
13443;SDS011;6794;59.218;18.218;2022-07-19T10:32:17;3.70;;;3.40;;
13443;SDS011;6794;59.218;18.218;2022-07-19T10:34:43;3.37;;;3.07;;
13443;SDS011;6794;59.218;18.218;2022-07-19T10:37:11;3.33;;;3.03;;
13443;SDS011;6794;59.218;18.218;2022-07-19T10:39:40;3.60;;;3.30;;
13443;SDS011;6794;59.218;18.218;2022-07-19T10:49:52;4.23;;;3.20;;
13443;SDS011;6794;59.218;18.218;2022-07-19T10:57:39;4.03;;;2.93;;
13443;SDS011;6794;59.218;18.218;2022-07-19T11:00:18;4.50;;;2.87;;
13443;SDS011;6794;59.218;18.218;2022-07-19T11:02:46;2.87;;;2.67;;
13443;SDS011;6794;59.218;18.218;2022-07-19T11:05:26;3.13;;;2.80;;
13443;SDS011;6794;59.218;18.218;2022-07-19T11:07:54;2.83;;;2.53;;
13443;SDS011;6794;59.218;18.218;2022-07-19T11:10:24;2.57;;;2.37;;
13443;SDS011;6794;59.218;18.218;2022-07-19T11:12:51;2.23;;;2.13;;
13443;SDS011;6794;59.218;18.218;2022-07-19T11:15:17;2.50;;;2.30;;
13443;SDS011;6794;59.218;18.218;2022-07-19T11:18:16;2.60;;;2.40;;
13443;SDS011;6794;59.218;18.218;2022-07-19T11:20:36;2.83;;;2.53;;
13443;SDS011;6794;59.218;18.218;2022-07-19T11:23:02;2.57;;;2.17;;
13443;SDS011;6794;59.218;18.218;2022-07-19T11:25:33;2.47;;;2.27;;
13443;SDS011;6794;59.218;18.218;2022-07-19T11:28:01;2.47;;;2.13;;
13443;SDS011;6794;59.218;18.218;2022-07-19T11:30:28;2.40;;;2.20;;
13443;SDS011;6794;59.218;18.218;2022-07-19T11:33:02;2.93;;;2.73;;
13443;SDS011;6794;59.218;18.218;2022-07-19T11:35:29;2.97;;;2.60;;
13443;SDS011;6794;59.218;18.218;2022-07-19T11:37:56;2.53;;;2.33;;
13443;SDS011;6794;59.218;18.218;2022-07-19T11:40:22;2.40;;;2.20;;
13443;SDS011;6794;59.218;18.218;2022-07-19T11:42:49;2.70;;;2.00;;
13443;SDS011;6794;59.218;18.218;2022-07-19T11:47:42;2.33;;;2.13;;
13443;SDS011;6794;59.218;18.218;2022-07-19T11:50:09;2.83;;;2.53;;
13443;SDS011;6794;59.218;18.218;2022-07-19T11:55:07;3.67;;;3.37;;
13443;SDS011;6794;59.218;18.218;2022-07-19T11:57:33;4.90;;;4.40;;
13443;SDS011;6794;59.218;18.218;2022-07-19T11:59:59;4.23;;;3.93;;
13443;SDS011;6794;59.218;18.218;2022-07-19T12:02:26;5.07;;;4.13;;
13443;SDS011;6794;59.218;18.218;2022-07-19T12:04:52;5.80;;;4.50;;
13443;SDS011;6794;59.218;18.218;2022-07-19T12:07:18;5.03;;;4.40;;
13443;SDS011;6794;59.218;18.218;2022-07-19T12:09:44;5.03;;;4.53;;
13443;SDS011;6794;59.218;18.218;2022-07-19T12:12:11;4.70;;;4.13;;
13443;SDS011;6794;59.218;18.218;2022-07-19T12:14:38;4.33;;;3.93;;
13443;SDS011;6794;59.218;18.218;2022-07-19T12:19:35;4.87;;;4.00;;
13443;SDS011;6794;59.218;18.218;2022-07-19T12:22:01;4.30;;;3.80;;
13443;SDS011;6794;59.218;18.218;2022-07-19T12:24:27;4.37;;;3.73;;
13443;SDS011;6794;59.218;18.218;2022-07-19T12:29:35;4.60;;;4.10;;
13443;SDS011;6794;59.218;18.218;2022-07-19T12:32:06;4.93;;;3.63;;
13443;SDS011;6794;59.218;18.218;2022-07-19T12:42:34;4.20;;;3.10;;
13443;SDS011;6794;59.218;18.218;2022-07-19T12:45:01;3.53;;;3.23;;
13443;SDS011;6794;59.218;18.218;2022-07-19T12:47:27;3.27;;;2.97;;
13443;SDS011;6794;59.218;18.218;2022-07-19T12:49:53;3.47;;;3.17;;
13443;SDS011;6794;59.218;18.218;2022-07-19T12:52:19;3.27;;;2.97;;
13443;SDS011;6794;59.218;18.218;2022-07-19T12:54:45;3.47;;;3.17;;
13443;SDS011;6794;59.218;18.218;2022-07-19T12:57:11;3.50;;;3.20;;
13443;SDS011;6794;59.218;18.218;2022-07-19T12:59:37;2.93;;;2.33;;
13443;SDS011;6794;59.218;18.218;2022-07-19T13:02:07;2.50;;;2.30;;
13443;SDS011;6794;59.218;18.218;2022-07-19T13:04:34;2.23;;;2.03;;
13443;SDS011;6794;59.218;18.218;2022-07-19T13:07:00;2.33;;;2.10;;
13443;SDS011;6794;59.218;18.218;2022-07-19T13:09:26;2.53;;;2.10;;
13443;SDS011;6794;59.218;18.218;2022-07-19T13:11:52;2.03;;;1.83;;
13443;SDS011;6794;59.218;18.218;2022-07-19T13:14:18;1.90;;;1.80;;
13443;SDS011;6794;59.218;18.218;2022-07-19T13:16:44;1.70;;;1.60;;
13443;SDS011;6794;59.218;18.218;2022-07-19T13:19:10;2.47;;;1.80;;
13443;SDS011;6794;59.218;18.218;2022-07-19T13:21:36;1.53;;;1.43;;
13443;SDS011;6794;59.218;18.218;2022-07-19T13:24:02;1.80;;;1.70;;
13443;SDS011;6794;59.218;18.218;2022-07-19T13:26:29;1.67;;;1.58;;
13443;SDS011;6794;59.218;18.218;2022-07-19T13:28:55;1.60;;;1.50;;
13443;SDS011;6794;59.218;18.218;2022-07-19T13:31:21;1.50;;;1.40;;
13443;SDS011;6794;59.218;18.218;2022-07-19T13:33:47;1.77;;;1.60;;
13443;SDS011;6794;59.218;18.218;2022-07-19T13:36:13;2.03;;;1.77;;
13443;SDS011;6794;59.218;18.218;2022-07-19T13:38:39;2.77;;;1.23;;
13443;SDS011;6794;59.218;18.218;2022-07-19T13:41:06;3.83;;;1.53;;
13443;SDS011;6794;59.218;18.218;2022-07-19T13:43:33;1.37;;;1.27;;
13443;SDS011;6794;59.218;18.218;2022-07-19T13:45:59;1.53;;;1.40;;
13443;SDS011;6794;59.218;18.218;2022-07-19T13:48:25;1.30;;;1.20;;
13443;SDS011;6794;59.218;18.218;2022-07-19T13:50:52;1.23;;;1.13;;
13443;SDS011;6794;59.218;18.218;2022-07-19T13:53:18;0.97;;;0.90;;
13443;SDS011;6794;59.218;18.218;2022-07-19T13:55:44;1.50;;;1.30;;
13443;SDS011;6794;59.218;18.218;2022-07-19T13:58:11;1.33;;;1.00;;
13443;SDS011;6794;59.218;18.218;2022-07-19T14:00:37;1.13;;;1.03;;
13443;SDS011;6794;59.218;18.218;2022-07-19T14:03:03;1.10;;;1.00;;
13443;SDS011;6794;59.218;18.218;2022-07-19T14:05:29;1.10;;;1.10;;
13443;SDS011;6794;59.218;18.218;2022-07-19T14:07:55;1.17;;;1.07;;
13443;SDS011;6794;59.218;18.218;2022-07-19T14:10:21;1.30;;;1.20;;
13443;SDS011;6794;59.218;18.218;2022-07-19T14:12:47;1.20;;;1.10;;
13443;SDS011;6794;59.218;18.218;2022-07-19T14:15:13;1.10;;;1.00;;
13443;SDS011;6794;59.218;18.218;2022-07-19T14:17:41;0.90;;;0.80;;
13443;SDS011;6794;59.218;18.218;2022-07-19T14:20:07;2.30;;;1.10;;
13443;SDS011;6794;59.218;18.218;2022-07-19T14:22:33;0.93;;;0.80;;
13443;SDS011;6794;59.218;18.218;2022-07-19T14:24:59;1.37;;;1.00;;
13443;SDS011;6794;59.218;18.218;2022-07-19T14:27:25;1.00;;;0.90;;
13443;SDS011;6794;59.218;18.218;2022-07-19T14:29:51;1.47;;;0.97;;
13443;SDS011;6794;59.218;18.218;2022-07-19T14:32:18;1.20;;;1.00;;
13443;SDS011;6794;59.218;18.218;2022-07-19T14:34:44;1.90;;;0.97;;
13443;SDS011;6794;59.218;18.218;2022-07-19T14:37:10;2.20;;;1.60;;
13443;SDS011;6794;59.218;18.218;2022-07-19T14:39:36;0.90;;;0.90;;
13443;SDS011;6794;59.218;18.218;2022-07-19T14:42:03;1.60;;;1.20;;
13443;SDS011;6794;59.218;18.218;2022-07-19T14:44:29;1.10;;;1.00;;
13443;SDS011;6794;59.218;18.218;2022-07-19T14:46:55;1.43;;;0.90;;
13443;SDS011;6794;59.218;18.218;2022-07-19T14:49:21;1.30;;;0.80;;
13443;SDS011;6794;59.218;18.218;2022-07-19T14:51:47;1.23;;;0.97;;
13443;SDS011;6794;59.218;18.218;2022-07-19T14:54:13;1.50;;;1.20;;
13443;SDS011;6794;59.218;18.218;2022-07-19T14:56:40;2.60;;;1.03;;
13443;SDS011;6794;59.218;18.218;2022-07-19T14:59:06;2.20;;;1.00;;
13443;SDS011;6794;59.218;18.218;2022-07-19T15:01:32;1.20;;;1.00;;
13443;SDS011;6794;59.218;18.218;2022-07-19T15:03:58;0.90;;;0.90;;
13443;SDS011;6794;59.218;18.218;2022-07-19T15:06:24;1.50;;;1.00;;
13443;SDS011;6794;59.218;18.218;2022-07-19T15:08:50;1.20;;;0.90;;
13443;SDS011;6794;59.218;18.218;2022-07-19T15:11:16;1.00;;;0.90;;
13443;SDS011;6794;59.218;18.218;2022-07-19T15:13:42;1.63;;;1.03;;
13443;SDS011;6794;59.218;18.218;2022-07-19T15:16:09;1.13;;;1.03;;
13443;SDS011;6794;59.218;18.218;2022-07-19T15:18:35;1.23;;;1.03;;
13443;SDS011;6794;59.218;18.218;2022-07-19T15:21:01;1.13;;;0.97;;
13443;SDS011;6794;59.218;18.218;2022-07-19T15:23:27;1.37;;;1.00;;
13443;SDS011;6794;59.218;18.218;2022-07-19T15:25:53;1.20;;;1.10;;
13443;SDS011;6794;59.218;18.218;2022-07-19T15:28:19;1.00;;;0.90;;